This is the latest recevied weather packets stored in our database for station/object DG3RAP-11. If no packets are shown the sender has not sent any weather packets the latest 10 day(s).
| Time | Temp. | Humidity | Pressure | Rain* | Wind** | Luminosity | Snow |
|---|---|---|---|---|---|---|---|
| 1777962423 | 17.78° C | 64% | 1008.6 hPa | 0 mm | - | - | - |
| 1777961883 | 16.11° C | 68% | 1008.8 hPa | 0 mm | - | - | - |
| 1777961343 | 16.67° C | 66% | 1008.6 hPa | 0 mm | - | - | - |
| 1777960803 | 15° C | 72% | 1008.6 hPa | 0 mm | - | - | - |
| 1777960443 | 15.56° C | 70% | 1008.9 hPa | 0 mm | - | - | - |
| 1777959903 | 15° C | 71% | 1008.6 hPa | 0 mm | - | - | - |
| 1777959363 | 14.44° C | 73% | 1008.7 hPa | 0 mm | - | - | - |
| 1777958823 | 15° C | 71% | 1008.5 hPa | 0 mm | - | - | - |
| 1777958283 | 15° C | 69% | 1008.5 hPa | 0 mm | - | - | - |
| 1777957743 | 14.44° C | 71% | 1008.6 hPa | 0 mm | - | - | - |
| 1777957203 | 14.44° C | 72% | 1008.4 hPa | 0 mm | - | - | - |
| 1777956843 | 13.89° C | 73% | 1008.5 hPa | 0 mm | - | - | - |
| 1777956303 | 13.33° C | 74% | 1008.6 hPa | 0 mm | - | - | - |
| 1777955763 | 13.33° C | 76% | 1008.6 hPa | 0 mm | - | - | - |
| 1777955223 | 13.33° C | 75% | 1008.8 hPa | 0 mm | - | - | - |
| 1777954683 | 13.33° C | 74% | 1008.6 hPa | 0 mm | - | - | - |
| 1777954143 | 13.33° C | 73% | 1008.8 hPa | 0 mm | - | - | - |
| 1777953603 | 13.33° C | 74% | 1008.6 hPa | 0 mm | - | - | - |
| 1777953243 | 13.33° C | 74% | 1008.6 hPa | 0 mm | - | - | - |
| 1777952703 | 13.33° C | 75% | 1008.7 hPa | 0 mm | - | - | - |
| 1777952163 | 12.78° C | 76% | 1008.7 hPa | 0 mm | - | - | - |
| 1777951623 | 12.78° C | 76% | 1008.8 hPa | 0 mm | - | - | - |
| 1777951083 | 12.78° C | 77% | 1008.8 hPa | 0 mm | - | - | - |
| 1777950543 | 13.33° C | 76% | 1008.8 hPa | 0 mm | - | - | - |
| 1777950003 | 13.33° C | 77% | 1008.9 hPa | 0 mm | - | - | - |
* Rain latest hour (hover to see other rain measurements)
** Current wind speed in m/s (hover to see current wind gust speed)